createdAt,value
2018-09-11T00:01:42.843Z,101987.12
2018-09-11T00:04:13.636Z,101993.38
2018-09-11T00:06:42.815Z,101992.98
2018-09-11T00:09:13.496Z,101992.03
2018-09-11T00:11:43.315Z,101999.64
2018-09-11T00:14:12.461Z,102003.30
2018-09-11T00:16:41.738Z,102004.64
2018-09-11T00:19:10.807Z,101995.20
2018-09-11T00:21:39.879Z,101998.83
2018-09-11T00:24:09.027Z,101995.75
2018-09-11T00:26:38.152Z,101993.91
2018-09-11T00:29:07.225Z,101992.09
2018-09-11T00:31:36.303Z,101991.22
2018-09-11T00:34:05.432Z,101989.39
2018-09-11T00:36:34.523Z,101986.25
2018-09-11T00:39:03.816Z,101991.22
2018-09-11T00:41:32.878Z,101992.19
2018-09-11T00:44:01.931Z,101988.14
2018-09-11T00:46:31.134Z,101984.09
2018-09-11T00:49:00.312Z,101980.53
2018-09-11T00:51:29.396Z,101981.41
2018-09-11T00:53:58.518Z,101982.27
2018-09-11T00:56:27.582Z,101979.19
2018-09-11T00:58:56.694Z,101976.88
2018-09-11T01:01:25.809Z,101974.66
2018-09-11T01:03:55.027Z,101953.10
2018-09-11T01:06:24.180Z,101958.02
2018-09-11T01:08:53.488Z,101956.19
2018-09-11T01:11:22.523Z,101970.62
2018-09-11T01:13:51.595Z,101975.14
2018-09-11T01:16:20.655Z,101980.98
2018-09-11T01:18:49.860Z,101974.66
2018-09-11T01:21:19.247Z,101977.36
2018-09-11T01:23:48.371Z,101976.49
2018-09-11T01:26:17.443Z,101983.23
2018-09-11T01:28:46.573Z,101990.41
2018-09-11T01:31:15.819Z,101993.59
2018-09-11T01:33:44.936Z,101988.20
2018-09-11T01:36:14.116Z,101988.20
2018-09-11T01:38:43.264Z,101990.41
2018-09-11T01:41:12.363Z,101993.53
2018-09-11T01:43:41.514Z,101986.37
2018-09-11T01:46:10.610Z,101985.92
2018-09-11T01:48:39.712Z,101991.38
2018-09-11T01:51:08.828Z,101990.41
2018-09-11T01:53:37.907Z,101997.57
2018-09-11T01:56:06.975Z,102003.02
2018-09-11T01:58:36.097Z,102001.77
2018-09-11T02:01:05.199Z,102002.63
2018-09-11T02:03:34.259Z,101999.94
2018-09-11T02:06:03.512Z,101992.72
2018-09-11T02:08:32.589Z,101988.68
2018-09-11T02:11:01.707Z,101995.80
2018-09-11T02:13:30.743Z,101990.41
2018-09-11T02:15:59.875Z,101993.67
2018-09-11T02:18:28.994Z,101985.59
2018-09-11T02:20:58.114Z,101984.64
2018-09-11T02:23:27.267Z,101981.94
2018-09-11T02:25:56.310Z,101978.86
2018-09-11T02:28:25.582Z,101974.81
2018-09-11T02:30:54.672Z,101976.16
2018-09-11T02:33:23.771Z,101968.95
2018-09-11T02:35:52.891Z,101971.64
2018-09-11T02:38:22.164Z,101972.98
2018-09-11T02:40:51.241Z,101975.68
2018-09-11T02:43:20.357Z,101969.42
2018-09-11T02:45:49.466Z,101966.73
2018-09-11T02:48:18.542Z,101965.77
2018-09-11T02:50:47.625Z,101966.25
2018-09-11T02:53:16.724Z,101970.30
2018-09-11T02:55:46.044Z,101967.59
2018-09-11T02:58:15.106Z,101971.64
2018-09-11T03:00:44.247Z,101968.47
2018-09-11T03:03:13.310Z,101972.51
2018-09-11T03:05:42.416Z,101968.95
2018-09-11T03:08:11.484Z,101966.79
2018-09-11T03:10:40.618Z,101959.99
2018-09-11T03:13:09.802Z,101960.92
2018-09-11T03:15:38.869Z,101964.48
2018-09-11T03:18:08.308Z,101966.25
2018-09-11T03:20:37.383Z,101957.30
2018-09-11T03:23:06.486Z,101953.25
2018-09-11T03:25:35.583Z,101956.88
2018-09-11T03:28:04.690Z,101947.39
2018-09-11T03:30:33.766Z,101942.00
2018-09-11T03:33:02.860Z,101950.95
2018-09-11T03:35:31.948Z,101942.05
2018-09-11T03:38:01.085Z,101943.34
2018-09-11T03:40:30.202Z,101939.78
2018-09-11T03:42:59.419Z,101935.73
2018-09-11T03:45:28.478Z,101923.19
2018-09-11T03:47:57.580Z,101932.63
2018-09-11T03:50:26.666Z,101929.45
2018-09-11T03:52:55.722Z,101932.63
2018-09-11T03:55:24.875Z,101928.09
2018-09-11T03:57:54.025Z,101925.02
2018-09-11T04:00:23.127Z,101929.06
2018-09-11T04:02:52.202Z,101934.39
2018-09-11T04:05:21.409Z,101926.75
2018-09-11T04:07:50.637Z,101932.63
2018-09-11T04:10:19.720Z,101940.32
2018-09-11T04:12:48.694Z,101933.10
2018-09-11T04:15:17.831Z,101938.97
2018-09-11T04:17:46.883Z,101935.80
2018-09-11T04:20:16.025Z,101935.80
2018-09-11T04:22:45.094Z,101931.34
2018-09-11T04:25:14.218Z,101933.58
2018-09-11T04:27:43.206Z,101924.59
2018-09-11T04:30:12.290Z,101920.55
2018-09-11T04:32:41.392Z,101922.00
2018-09-11T04:35:10.480Z,101925.95
2018-09-11T04:37:39.868Z,101922.00
2018-09-11T04:40:11.913Z,101930.89
2018-09-11T04:42:41.148Z,101932.77
2018-09-11T04:45:10.362Z,101930.08
2018-09-11T04:47:39.422Z,101942.59
2018-09-11T04:50:08.423Z,101932.36
2018-09-11T04:52:37.488Z,101936.82
2018-09-11T04:55:06.630Z,101942.20
2018-09-11T04:57:35.782Z,101943.55
2018-09-11T05:00:04.797Z,101939.09
2018-09-11T05:02:33.891Z,101944.91
2018-09-11T05:05:03.033Z,101938.16
2018-09-11T05:07:32.091Z,101938.16
2018-09-11T05:10:01.195Z,101945.77
2018-09-11T05:12:30.327Z,101935.05
2018-09-11T05:14:59.407Z,101932.36
2018-09-11T05:17:28.501Z,101934.60
2018-09-11T05:19:57.601Z,101935.05
2018-09-11T05:22:26.678Z,101935.53
2018-09-11T05:24:55.762Z,101922.05
2018-09-11T05:27:24.976Z,101918.50
2018-09-11T05:29:54.214Z,101921.19
2018-09-11T05:32:23.222Z,101930.62
2018-09-11T05:34:52.351Z,101932.45
2018-09-11T05:37:21.665Z,101923.41
2018-09-11T05:39:50.833Z,101927.54
2018-09-11T05:42:19.954Z,101932.03
2018-09-11T05:44:48.929Z,101948.20
2018-09-11T05:47:18.073Z,101941.87
2018-09-11T05:49:47.346Z,101935.63
2018-09-11T05:52:16.422Z,101934.27
2018-09-11T05:54:45.510Z,101938.32
2018-09-11T05:57:14.531Z,101935.69
2018-09-11T05:59:43.642Z,101937.41
2018-09-11T06:02:12.710Z,101934.72
2018-09-11T06:04:41.829Z,101932.51
2018-09-11T06:07:11.034Z,101941.45
2018-09-11T06:09:40.112Z,101948.67
2018-09-11T06:12:09.224Z,101941.02
2018-09-11T06:14:38.210Z,101949.09
2018-09-11T06:17:07.284Z,101938.32
2018-09-11T06:19:36.398Z,101948.20
2018-09-11T06:22:05.390Z,101956.28
2018-09-11T06:24:34.492Z,101954.94
2018-09-11T06:27:03.604Z,101953.14
2018-09-11T06:29:32.902Z,101951.31
2018-09-11T06:32:01.984Z,101953.91
2018-09-11T06:34:30.992Z,101944.03
2018-09-11T06:37:00.101Z,101947.17
2018-09-11T06:39:29.276Z,101947.59
2018-09-11T06:41:58.315Z,101949.00
2018-09-11T06:44:27.465Z,101944.96
2018-09-11T06:46:56.463Z,101947.17
2018-09-11T06:49:25.736Z,101944.48
2018-09-11T06:51:54.845Z,101941.78
2018-09-11T06:54:23.936Z,101947.17
2018-09-11T06:56:53.064Z,101941.78
2018-09-11T06:59:22.223Z,101944.42
2018-09-11T07:01:51.274Z,101944.03
2018-09-11T07:04:20.504Z,101943.55
2018-09-11T07:06:49.543Z,101951.55
2018-09-11T07:09:28.475Z,101950.08
2018-09-11T07:11:57.638Z,101953.16
2018-09-11T07:14:26.645Z,101950.89
2018-09-11T07:16:55.908Z,101948.09
2018-09-11T07:19:25.080Z,101949.38
2018-09-11T07:21:55.146Z,101948.42
2018-09-11T07:24:24.299Z,101953.34
2018-09-11T07:26:53.397Z,101961.30
2018-09-11T07:29:22.584Z,101956.45
2018-09-11T07:31:51.782Z,101973.01
2018-09-11T07:34:20.936Z,101975.32
2018-09-11T07:36:56.396Z,101963.67
2018-09-11T07:39:25.409Z,101979.42
2018-09-11T07:41:54.459Z,101979.42
2018-09-11T07:44:23.776Z,101987.98
2018-09-11T07:46:52.907Z,101997.42
2018-09-11T07:49:22.078Z,101991.55
2018-09-11T07:51:51.180Z,101989.34
2018-09-11T07:54:20.290Z,101991.16
2018-09-11T07:56:49.383Z,101991.55
2018-09-11T07:59:18.471Z,101987.98
2018-09-11T08:01:48.635Z,101984.81
2018-09-11T08:04:17.783Z,101984.33
2018-09-11T08:06:46.887Z,101982.05
2018-09-11T08:09:15.987Z,101986.97
2018-09-11T08:11:45.085Z,101975.70
2018-09-11T08:14:14.280Z,101967.95
2018-09-11T08:16:43.603Z,101974.14
2018-09-11T08:19:12.883Z,101982.17
2018-09-11T08:21:41.983Z,101990.59
2018-09-11T08:24:11.103Z,101983.30
2018-09-11T08:26:40.271Z,101982.28
2018-09-11T08:29:09.507Z,101988.06
2018-09-11T08:31:38.771Z,101979.98
2018-09-11T08:34:07.867Z,101982.61
2018-09-11T08:36:37.051Z,101975.39
2018-09-11T08:39:08.588Z,101995.07
2018-09-11T08:41:37.752Z,102009.00
2018-09-11T08:44:06.909Z,102010.77
2018-09-11T08:46:36.039Z,102016.22
2018-09-11T08:49:05.344Z,102027.42
2018-09-11T08:51:34.487Z,102016.22
2018-09-11T08:54:03.682Z,102031.47
2018-09-11T08:56:32.695Z,102030.51
2018-09-11T08:59:01.784Z,102028.68
2018-09-11T09:01:30.876Z,102029.64
2018-09-11T09:03:59.987Z,102023.37
2018-09-11T09:06:29.060Z,102020.20
2018-09-11T09:08:58.464Z,102021.07
2018-09-11T09:11:27.549Z,102023.29
2018-09-11T09:13:56.784Z,102025.98
2018-09-11T09:16:25.852Z,102023.37
2018-09-11T09:18:54.936Z,102031.86
2018-09-11T09:21:24.055Z,102039.08
2018-09-11T09:23:53.166Z,102048.58
2018-09-11T09:26:22.200Z,102036.86
2018-09-11T09:28:51.339Z,102051.69
2018-09-11T09:31:20.463Z,102059.84
2018-09-11T09:33:49.832Z,102068.73
2018-09-11T09:36:18.823Z,102063.83
2018-09-11T09:38:47.973Z,102061.52
2018-09-11T09:41:17.042Z,102051.27
2018-09-11T09:43:46.113Z,102059.78
2018-09-11T09:46:15.440Z,102067.39
2018-09-11T09:48:44.496Z,102062.05
2018-09-11T09:51:13.615Z,102053.91
2018-09-11T09:53:42.758Z,102065.08
2018-09-11T09:56:11.814Z,102055.16
2018-09-11T09:58:40.896Z,102063.34
2018-09-11T10:01:15.345Z,102061.52
2018-09-11T10:03:44.623Z,102061.52
2018-09-11T10:06:13.715Z,102045.39
2018-09-11T10:08:42.838Z,102037.31
2018-09-11T10:11:11.903Z,102051.69
2018-09-11T10:13:41.004Z,102046.69
2018-09-11T10:16:10.223Z,102061.13
2018-09-11T10:18:39.391Z,102049.00
2018-09-11T10:21:08.519Z,102052.08
2018-09-11T10:23:37.580Z,102043.03
2018-09-11T10:26:06.791Z,102045.34
2018-09-11T10:28:35.847Z,102049.38
2018-09-11T10:31:04.975Z,102052.02
2018-09-11T10:33:34.111Z,102045.66
2018-09-11T10:36:03.384Z,102043.03
2018-09-11T10:38:32.476Z,102056.52
2018-09-11T10:41:01.579Z,102055.58
2018-09-11T10:43:30.688Z,102034.94
2018-09-11T10:45:59.887Z,102048.42
2018-09-11T10:48:28.987Z,102034.88
2018-09-11T10:50:58.075Z,102029.97
2018-09-11T10:53:27.258Z,102031.70
2018-09-11T10:55:56.314Z,102027.59
2018-09-11T10:58:25.401Z,102032.19
2018-09-11T11:00:54.571Z,102033.59
2018-09-11T11:03:23.754Z,102023.29
2018-09-11T11:05:52.864Z,102029.48
2018-09-11T11:08:22.194Z,102024.96
2018-09-11T11:10:51.347Z,102024.96
2018-09-11T11:13:20.448Z,102026.31
2018-09-11T11:15:49.672Z,102024.58
2018-09-11T11:18:18.844Z,102044.31
2018-09-11T11:20:47.953Z,102029.81
2018-09-11T11:23:17.032Z,102035.69
2018-09-11T11:25:46.139Z,102038.39
2018-09-11T11:28:15.216Z,102034.82
2018-09-11T11:30:44.316Z,102031.22
2018-09-11T11:33:13.360Z,102028.08
2018-09-11T11:35:42.604Z,102029.81
2018-09-11T11:38:11.705Z,102010.94
2018-09-11T11:40:40.805Z,102019.90
2018-09-11T11:43:09.908Z,102019.90
2018-09-11T11:45:39.050Z,102016.27
2018-09-11T11:48:08.132Z,102011.75
2018-09-11T11:50:37.484Z,102001.89
2018-09-11T11:53:06.603Z,102002.31
2018-09-11T11:55:36.049Z,102005.39
2018-09-11T11:58:05.395Z,102007.16
2018-09-11T12:00:34.787Z,102001.34
2018-09-11T12:03:03.873Z,102001.83
2018-09-11T12:05:32.980Z,102036.41
2018-09-11T12:08:02.092Z,102036.88
2018-09-11T12:10:31.293Z,102040.87
2018-09-11T12:13:00.678Z,102040.33
2018-09-11T12:15:29.794Z,102042.60
2018-09-11T12:17:58.883Z,102038.62
2018-09-11T12:20:27.940Z,102057.44
2018-09-11T12:22:56.991Z,102047.13
2018-09-11T12:25:26.242Z,102041.25
2018-09-11T12:27:55.550Z,102039.42
2018-09-11T12:30:24.652Z,102036.73
2018-09-11T12:32:53.778Z,102039.42
2018-09-11T12:35:22.853Z,102029.13
2018-09-11T12:37:51.956Z,102017.41
2018-09-11T12:40:21.056Z,102013.27
2018-09-11T12:42:50.250Z,102009.70
2018-09-11T12:45:19.326Z,102013.69
2018-09-11T12:47:48.684Z,102011.05
2018-09-11T12:50:17.750Z,102014.55
2018-09-11T12:52:46.811Z,102009.16
2018-09-11T12:55:15.919Z,102001.61
2018-09-11T12:57:45.019Z,102010.57
2018-09-11T13:00:14.130Z,102002.48
2018-09-11T13:02:43.196Z,102002.00
2018-09-11T13:05:12.394Z,101996.16
2018-09-11T13:07:41.443Z,101995.67
2018-09-11T13:10:10.597Z,101997.41
2018-09-11T13:12:39.719Z,102001.55
2018-09-11T13:15:08.852Z,101993.91
2018-09-11T13:17:38.087Z,101995.67
2018-09-11T13:20:07.204Z,101989.80
2018-09-11T13:22:36.436Z,102000.20
2018-09-11T13:25:05.652Z,101991.21
2018-09-11T13:27:34.737Z,101997.89
2018-09-11T13:30:03.969Z,102003.77
2018-09-11T13:32:33.098Z,102004.63
2018-09-11T13:35:02.283Z,102008.68
2018-09-11T13:37:31.376Z,102006.85
2018-09-11T13:40:00.650Z,102001.45
2018-09-11T13:42:29.759Z,102002.80
2018-09-11T13:44:58.988Z,101994.72
2018-09-11T13:47:28.578Z,101991.15
2018-09-11T13:49:58.028Z,101997.41
2018-09-11T13:52:27.215Z,102005.11
2018-09-11T13:54:56.299Z,102002.80
2018-09-11T13:57:25.483Z,101998.28
2018-09-11T13:59:57.052Z,102001.88
2018-09-11T14:02:26.344Z,101999.56
2018-09-11T14:04:55.594Z,102003.61
2018-09-11T14:07:24.691Z,102002.27
2018-09-11T14:09:53.884Z,102003.13
2018-09-11T14:12:24.060Z,102003.61
2018-09-11T14:14:53.186Z,101996.00
2018-09-11T14:17:22.380Z,102001.30
2018-09-11T14:19:51.589Z,102001.30
2018-09-11T14:22:20.683Z,101996.39
2018-09-11T14:24:49.833Z,101996.33
2018-09-11T14:27:18.956Z,101986.88
2018-09-11T14:29:48.044Z,101978.38
2018-09-11T14:32:17.124Z,101976.09
2018-09-11T14:34:46.377Z,101978.31
2018-09-11T14:37:15.465Z,101978.31
2018-09-11T14:39:44.749Z,101982.36
2018-09-11T14:42:13.799Z,101982.30
2018-09-11T14:44:42.929Z,101985.06
2018-09-11T14:47:12.011Z,101981.07
2018-09-11T14:49:41.079Z,101985.12
2018-09-11T14:52:10.222Z,101982.84
2018-09-11T14:54:39.647Z,101989.16
2018-09-11T14:57:08.731Z,101981.97
2018-09-11T14:59:37.891Z,101989.10
2018-09-11T15:02:06.998Z,101971.19
2018-09-11T15:04:36.101Z,101977.45
2018-09-11T15:07:05.510Z,101981.55
2018-09-11T15:09:34.623Z,101985.06
2018-09-11T15:12:03.787Z,101982.36
2018-09-11T15:14:32.871Z,101985.54
2018-09-11T15:17:01.934Z,101985.92
2018-09-11T15:19:31.083Z,101981.40
2018-09-11T15:22:00.179Z,101981.40
2018-09-11T15:24:29.245Z,101978.70
2018-09-11T15:26:58.370Z,101985.44
2018-09-11T15:29:27.456Z,101983.23
2018-09-11T15:31:56.561Z,101980.05
2018-09-11T15:34:25.647Z,101984.99
2018-09-11T15:36:54.729Z,101982.30
2018-09-11T15:39:23.917Z,101988.95
2018-09-11T15:41:53.032Z,101986.73
2018-09-11T15:44:22.298Z,101994.81
2018-09-11T15:46:51.447Z,101981.72
2018-09-11T15:49:20.474Z,101983.55
2018-09-11T15:51:49.660Z,101984.90
2018-09-11T15:54:18.835Z,101975.55
2018-09-11T15:56:47.927Z,101975.62
2018-09-11T15:59:17.068Z,101970.16
2018-09-11T16:01:46.389Z,101972.44
2018-09-11T16:04:15.572Z,101974.66
2018-09-11T16:06:44.811Z,101972.86
2018-09-11T16:09:14.249Z,101970.16
2018-09-11T16:11:43.449Z,101978.16
2018-09-11T16:14:12.749Z,101973.78
2018-09-11T16:16:41.802Z,101976.91
2018-09-11T16:19:11.017Z,101970.70
2018-09-11T16:21:40.119Z,101966.66
2018-09-11T16:24:09.220Z,101972.53
2018-09-11T16:26:38.404Z,101975.23
2018-09-11T16:29:07.481Z,101977.83
2018-09-11T16:31:36.601Z,101981.49
2018-09-11T16:34:05.703Z,101981.49
2018-09-11T16:36:34.793Z,101978.38
2018-09-11T16:39:05.372Z,101978.38
2018-09-11T16:41:34.503Z,101978.38
2018-09-11T16:44:03.804Z,101984.19
2018-09-11T16:46:33.142Z,101973.47
2018-09-11T16:49:02.512Z,101977.03
2018-09-11T16:51:31.625Z,101987.81
2018-09-11T16:54:03.795Z,101977.99
2018-09-11T16:56:33.139Z,101971.73
2018-09-11T16:59:02.353Z,101977.92
2018-09-11T17:01:31.503Z,101980.62
2018-09-11T17:04:00.617Z,101980.62
2018-09-11T17:06:29.715Z,101979.73
2018-09-11T17:08:58.772Z,101982.36
2018-09-11T17:11:27.881Z,101974.75
2018-09-11T17:13:56.993Z,101973.95
2018-09-11T17:16:26.147Z,101972.59
2018-09-11T17:18:55.240Z,101978.38
2018-09-11T17:21:24.373Z,101972.53
2018-09-11T17:23:53.469Z,101970.22
2018-09-11T17:26:22.627Z,101961.27
2018-09-11T17:28:51.750Z,101953.17
2018-09-11T17:31:20.834Z,101964.89
2018-09-11T17:33:49.934Z,101962.77
2018-09-11T17:36:18.990Z,101970.86
2018-09-11T17:38:48.110Z,101973.88
2018-09-11T17:41:17.187Z,101968.07
2018-09-11T17:43:46.320Z,101972.11
2018-09-11T17:46:15.506Z,101966.66
2018-09-11T17:48:44.651Z,101965.37
2018-09-11T17:51:13.955Z,101962.61
2018-09-11T17:53:43.103Z,101971.63
2018-09-11T17:56:12.214Z,101972.59
2018-09-11T17:58:41.753Z,101975.30
2018-09-11T18:01:10.815Z,101967.75
2018-09-11T18:03:40.066Z,101970.38
2018-09-11T18:06:09.370Z,101971.31
2018-09-11T18:08:38.491Z,101970.86
2018-09-11T18:11:07.827Z,101973.56
2018-09-11T18:13:36.917Z,101977.99
2018-09-11T18:16:05.983Z,101971.79
2018-09-11T18:18:35.186Z,101975.84
2018-09-11T18:21:04.289Z,101969.58
2018-09-11T18:23:33.427Z,101959.17
2018-09-11T18:26:02.602Z,101970.92
2018-09-11T18:28:31.680Z,101967.75
2018-09-11T18:31:00.789Z,101982.25
2018-09-11T18:33:30.121Z,101981.45
2018-09-11T18:35:59.224Z,101982.67
2018-09-11T18:38:28.401Z,101984.08
2018-09-11T18:40:57.685Z,101991.78
2018-09-11T18:43:26.868Z,101984.56
2018-09-11T18:45:56.042Z,101993.91
2018-09-11T18:48:25.293Z,102001.55
2018-09-11T18:50:54.411Z,101998.11
2018-09-11T18:53:23.561Z,102007.81
2018-09-11T18:55:52.694Z,102007.81
2018-09-11T18:58:21.875Z,102012.40
2018-09-11T19:00:51.068Z,102030.80
2018-09-11T19:03:20.189Z,102020.02
2018-09-11T19:05:49.452Z,102025.95
2018-09-11T19:08:18.562Z,102026.84
2018-09-11T19:10:47.653Z,102029.13
2018-09-11T19:13:16.849Z,102031.81
2018-09-11T19:15:45.997Z,102030.08
2018-09-11T19:18:15.086Z,102028.25
2018-09-11T19:20:44.229Z,102024.59
2018-09-11T19:23:13.375Z,102025.95
2018-09-11T19:25:42.487Z,102013.00
2018-09-11T19:28:11.644Z,102022.86
2018-09-11T19:30:40.841Z,102018.33
2018-09-11T19:33:10.030Z,102013.42
2018-09-11T19:35:39.250Z,102016.12
2018-09-11T19:38:08.527Z,102026.48
2018-09-11T19:40:37.661Z,102008.89
2018-09-11T19:43:06.829Z,102010.24
2018-09-11T19:45:36.010Z,102017.95
2018-09-11T19:48:05.233Z,102016.60
2018-09-11T19:50:34.456Z,102016.66
2018-09-11T19:53:03.828Z,102009.92
2018-09-11T19:55:33.006Z,102004.47
2018-09-11T19:58:02.153Z,102007.61
2018-09-11T20:00:31.312Z,102008.95
2018-09-11T20:03:00.430Z,102008.51
2018-09-11T20:05:29.612Z,102013.42
2018-09-11T20:07:58.721Z,102015.25
2018-09-11T20:10:27.902Z,102017.95
2018-09-11T20:12:56.997Z,102017.95
2018-09-11T20:15:26.084Z,102016.66
2018-09-11T20:17:55.819Z,102013.09
2018-09-11T20:20:24.987Z,102012.61
2018-09-11T20:22:54.075Z,102006.35
2018-09-11T20:25:23.247Z,101998.27
2018-09-11T20:27:52.502Z,101996.91
2018-09-11T20:30:21.675Z,102003.17
2018-09-11T20:32:50.920Z,102005.48
2018-09-11T20:35:20.099Z,101992.93
2018-09-11T20:37:49.321Z,101997.30
2018-09-11T20:40:18.588Z,101995.95
2018-09-11T20:42:47.688Z,101997.78
2018-09-11T20:45:16.903Z,101993.26
2018-09-11T20:47:46.182Z,101994.22
2018-09-11T20:50:15.248Z,101997.30
2018-09-11T20:52:44.374Z,101996.37
2018-09-11T20:55:13.556Z,102000.00
2018-09-11T20:57:42.644Z,101996.91
2018-09-11T21:00:11.728Z,102003.17
2018-09-11T21:02:40.804Z,102004.14
2018-09-11T21:05:09.936Z,102013.97
2018-09-11T21:07:38.996Z,102017.63
2018-09-11T21:10:08.122Z,102011.27
2018-09-11T21:12:37.183Z,102018.01
2018-09-11T21:15:06.387Z,102013.09
2018-09-11T21:17:35.547Z,102017.53
2018-09-11T21:20:04.836Z,102019.84
2018-09-11T21:22:33.948Z,102015.80
2018-09-11T21:25:03.152Z,102015.38
2018-09-11T21:27:32.228Z,102021.19
2018-09-11T21:30:01.528Z,102025.71
2018-09-11T21:32:30.600Z,102027.06
2018-09-11T21:34:59.699Z,102027.93
2018-09-11T21:37:28.796Z,102027.59
2018-09-11T21:39:57.893Z,102023.55
2018-09-11T21:42:27.027Z,102021.73
2018-09-11T21:44:56.104Z,102014.59
2018-09-11T21:47:25.207Z,102022.20
2018-09-11T21:49:54.294Z,102022.11
2018-09-11T21:52:23.589Z,102016.81
2018-09-11T21:54:52.733Z,102020.77
2018-09-11T21:57:21.899Z,102031.55
2018-09-11T21:59:50.974Z,102018.64
2018-09-11T22:02:20.088Z,102021.34
2018-09-11T22:04:49.177Z,102011.90
2018-09-11T22:07:18.247Z,102009.59
2018-09-11T22:09:47.374Z,102006.41
2018-09-11T22:12:16.471Z,102002.47
2018-09-11T22:14:45.675Z,102007.44
2018-09-11T22:17:14.907Z,102003.88
2018-09-11T22:19:44.007Z,102006.09
2018-09-11T22:22:13.077Z,102010.61
2018-09-11T22:24:42.401Z,102003.39
2018-09-11T22:27:11.668Z,102006.09
2018-09-11T22:29:40.767Z,102006.51
2018-09-11T22:32:09.919Z,101992.61
2018-09-11T22:34:39.004Z,101986.73
2018-09-11T22:37:08.159Z,101987.22
2018-09-11T22:39:37.411Z,101989.43
2018-09-11T22:42:06.559Z,101982.30
2018-09-11T22:44:35.823Z,101985.48
2018-09-11T22:47:05.036Z,101991.35
2018-09-11T22:49:34.238Z,101985.00
2018-09-11T22:52:03.638Z,101982.24
2018-09-11T22:54:32.752Z,101977.30
2018-09-11T22:57:01.867Z,101979.55
2018-09-11T22:59:31.047Z,101976.42
2018-09-11T23:02:00.153Z,101971.52
2018-09-11T23:04:29.236Z,101970.17
2018-09-11T23:06:58.337Z,101965.26
2018-09-11T23:09:27.424Z,101963.05
2018-09-11T23:11:56.579Z,101959.38
2018-09-11T23:14:25.709Z,101961.12
2018-09-11T23:16:54.900Z,101958.42
2018-09-11T23:19:24.091Z,101952.16
2018-09-11T23:21:53.167Z,101958.91
2018-09-11T23:24:22.279Z,101954.95
2018-09-11T23:26:51.403Z,101948.59
2018-09-11T23:29:20.463Z,101950.43
2018-09-11T23:31:49.569Z,101952.10
2018-09-11T23:34:18.551Z,101945.84
2018-09-11T23:36:47.671Z,101946.77
2018-09-11T23:39:16.760Z,101942.73
2018-09-11T23:41:45.975Z,101949.95
2018-09-11T23:44:15.156Z,101945.03
2018-09-11T23:46:44.223Z,101941.47
2018-09-11T23:49:13.299Z,101935.59
2018-09-11T23:51:42.355Z,101937.42
2018-09-11T23:54:11.407Z,101928.86
2018-09-11T23:56:40.531Z,101931.55
2018-09-11T23:59:09.587Z,101934.25
